Cardiff, California
Current Conditions -  °F | °C
As of 3:53 PM on Thursday 27 Nov 2014 (Local Time) from KCRQ Reporting Station
Clear Clear  
Wind Chill: 77°   Ceiling: Unl
Heat Index: 77°   Visibility: 10mi
Dew Point: 36°   Wind: 5mph
Humidity: 23%   Direction: 320°NW
Pressure: 30"   Gusts: NA
Location:  33.0233°N, 117.276°W
Report Text: KCRQ 272353Z AUTO 32004KT 10SM CLR 25/02 A3000 RMK AO2 SLP157 T02500022 10294 20250 55005 TSNO
Loading
Personal Weather Stations






























Interactive Weather Map New forecast layout! Learn more

10-Day Weather Forecast

Advertisements
Track Severe Weather on mobile